Terminal Aerodrome Forecast
Issued by NWS

Home | Current Version | Previous Version | Text Only | Print | Product List | Glossary On
Versions: 1 2 3 4 5 6 7 8 9 10 11 12 13 14 15 16 17 18 19 20 21 22
891
FTUS41 KCAR 130520
TAFPQI
TAF
KPQI 130520Z 1306/1406 03006KT 3SM -SNPL BR OVC010
     FM130630 08011G17KT 2SM -FZRAPL BR OVC006
     FM130930 09008KT 1SM -FZDZ BR OVC002
     FM131530 30010KT 2SM -SHSN OVC006
     FM132100 25011KT 4SM -SHSN OVC015=

USA.gov is the U.S. government's official web portal to all federal, state and local government web resources and services.